Time;durP1;ratioP1;P1;durP2;ratioP2;P2;SDS_P1;SDS_P2;PMS_P1;PMS_P2;Temp;Humidity;BMP_temperature;BMP_pressure;BME280_temperature;BME280_humidity;BME280_pressure;Samples;Min_cycle;Max_cycle;Signal;HPM_P1;HPM_P2
2023/04/17 00:00:34;;;;;;;7.20;3.30;;;;;;;5.12;100.00;101420.75;105240;1266;66312;-49
2023/04/17 00:03:02;;;;;;;7.80;3.40;;;;;;;5.15;100.00;101427.81;105230;1264;73776;-51
2023/04/17 00:05:32;;;;;;;8.00;3.40;;;;;;;5.13;100.00;101431.70;105251;1265;60848;-51
2023/04/17 00:08:03;;;;;;;15.20;3.40;;;;;;;5.09;100.00;101437.62;105238;1260;61672;-50
2023/04/17 00:10:31;;;;;;;9.90;3.10;;;;;;;5.02;100.00;101438.00;105254;1265;75172;-50
2023/04/17 00:13:02;;;;;;;8.00;3.60;;;;;;;4.94;100.00;101435.63;105212;1264;66145;-51
2023/04/17 00:15:30;;;;;;;6.80;3.00;;;;;;;4.87;100.00;101431.70;105194;1265;74200;-50
2023/04/17 00:17:59;;;;;;;10.30;3.50;;;;;;;4.82;100.00;101421.00;105216;1265;61688;-49
2023/04/17 00:20:27;;;;;;;7.50;3.80;;;;;;;4.77;100.00;101421.23;105269;1260;60558;-49
2023/04/17 00:22:55;;;;;;;11.60;3.90;;;;;;;4.74;100.00;101419.14;105231;1265;75452;-48
2023/04/17 00:25:24;;;;;;;11.90;3.30;;;;;;;4.73;100.00;101419.45;105248;1266;66181;-49
2023/04/17 00:27:53;;;;;;;7.10;3.20;;;;;;;4.69;100.00;101414.24;105242;1266;74543;-51
2023/04/17 00:30:21;;;;;;;6.60;3.10;;;;;;;4.69;100.00;101415.95;105239;1265;60828;-51
2023/04/17 00:32:52;;;;;;;7.20;3.60;;;;;;;4.68;100.00;101417.12;105257;1261;61824;-49
2023/04/17 00:35:20;;;;;;;6.30;3.00;;;;;;;4.68;100.00;101416.78;105177;1264;75435;-52
2023/04/17 00:37:49;;;;;;;7.40;3.20;;;;;;;4.67;100.00;101414.88;105261;1264;66157;-50
2023/04/17 00:40:17;;;;;;;9.70;3.30;;;;;;;4.66;100.00;101420.48;105240;1260;74100;-51
2023/04/17 00:42:51;;;;;;;5.80;3.40;;;;;;;4.65;100.00;101419.63;105209;1264;61485;-52
2023/04/17 00:45:20;;;;;;;10.10;3.50;;;;;;;4.62;100.00;101422.11;105267;1264;60877;-49
2023/04/17 00:47:49;;;;;;;7.10;3.10;;;;;;;4.57;100.00;101424.25;105246;1261;74652;-50
2023/04/17 00:50:18;;;;;;;9.90;3.10;;;;;;;4.55;100.00;101422.48;105236;1266;65418;-49
2023/04/17 00:52:46;;;;;;;8.90;3.60;;;;;;;4.51;100.00;101426.51;105232;1266;74380;-49
2023/04/17 00:55:14;;;;;;;16.00;3.80;;;;;;;4.46;100.00;101423.33;105274;1266;63013;-50
2023/04/17 00:57:43;;;;;;;6.20;3.20;;;;;;;4.45;100.00;101421.93;105204;1263;60599;-51
2023/04/17 01:00:12;;;;;;;8.40;3.70;;;;;;;4.49;100.00;101420.65;105244;1263;74690;-50
2023/04/17 01:02:41;;;;;;;13.00;4.10;;;;;;;4.54;100.00;101424.19;105224;1270;66948;-50
2023/04/17 01:05:09;;;;;;;10.20;3.70;;;;;;;4.59;100.00;101431.98;105210;1263;74131;-49
2023/04/17 01:07:40;;;;;;;5.10;2.90;;;;;;;4.59;100.00;101430.95;105232;1264;60925;-51
2023/04/17 01:10:08;;;;;;;8.90;3.20;;;;;;;4.63;100.00;101435.30;105236;1260;61637;-52
2023/04/17 01:12:37;;;;;;;7.50;3.40;;;;;;;4.65;100.00;101435.34;105225;1265;75033;-52
2023/04/17 01:15:06;;;;;;;13.30;3.60;;;;;;;4.69;100.00;101439.89;105274;1264;66162;-51
2023/04/17 01:17:35;;;;;;;12.40;3.60;;;;;;;4.68;100.00;101443.48;105202;1271;74248;-48
2023/04/17 01:20:09;;;;;;;15.90;3.80;;;;;;;4.66;100.00;101444.42;105208;1265;60869;-51
2023/04/17 01:22:38;;;;;;;12.90;3.80;;;;;;;4.65;100.00;101449.55;105217;1265;62385;-48
2023/04/17 01:25:07;;;;;;;10.40;3.50;;;;;;;4.68;100.00;101454.41;105285;1265;75376;-50
2023/04/17 01:27:37;;;;;;;10.00;3.60;;;;;;;4.71;100.00;101455.67;105253;1266;65716;-49
2023/04/17 01:30:07;;;;;;;11.00;3.80;;;;;;;4.68;100.00;101448.08;105222;1266;72931;-49
2023/04/17 01:32:42;;;;;;;12.80;4.00;;;;;;;4.64;100.00;101447.45;105217;1264;60931;-50
2023/04/17 01:35:11;;;;;;;12.50;3.90;;;;;;;4.60;100.00;101442.79;105270;1261;61633;-51
2023/04/17 01:37:39;;;;;;;17.70;3.90;;;;;;;4.59;100.00;101444.98;105188;1264;75278;-50
2023/04/17 01:40:09;;;;;;;9.30;3.80;;;;;;;4.63;100.00;101451.21;105270;1267;65865;-49
2023/04/17 01:42:37;;;;;;;11.30;3.40;;;;;;;4.63;100.00;101452.92;105213;1265;74255;-51
2023/04/17 01:45:07;;;;;;;16.70;3.80;;;;;;;4.63;100.00;101459.92;105212;1265;62427;-48
2023/04/17 01:47:35;;;;;;;8.30;3.30;;;;;;;4.64;100.00;101460.63;105249;1264;61083;-50
2023/04/17 01:50:04;;;;;;;21.50;3.80;;;;;;;4.67;100.00;101461.23;105240;1261;75287;-48
2023/04/17 01:52:35;;;;;;;11.20;3.50;;;;;;;4.69;100.00;101465.04;105224;1266;65936;-51
2023/04/17 01:55:03;;;;;;;13.70;3.00;;;;;;;4.67;100.00;101463.62;105223;1266;74181;-50
2023/04/17 01:57:32;;;;;;;7.70;3.20;;;;;;;4.60;100.00;101466.55;105247;1263;60566;-50
2023/04/17 02:00:01;;;;;;;8.40;3.20;;;;;;;4.54;100.00;101461.62;105212;1265;61624;-51
2023/04/17 02:02:39;;;;;;;17.80;3.60;;;;;;;4.50;100.00;101460.33;105215;1261;75210;-50
2023/04/17 02:05:09;;;;;;;12.60;4.30;;;;;;;4.48;100.00;101454.65;105256;1265;64933;-50
2023/04/17 02:07:38;;;;;;;10.00;4.20;;;;;;;4.50;100.00;101459.80;105229;1263;74239;-52
2023/04/17 02:43:24;;;;;;;11.00;3.20;;;;;;;4.17;100.00;101436.52;102513;1294;602627;-51
2023/04/17 02:47:06;;;;;;;19.40;3.00;;;;;;;4.14;100.00;101435.23;102837;1293;600173;-51
2023/04/17 02:49:35;;;;;;;8.50;2.80;;;;;;;4.12;100.00;101439.29;105157;1270;62434;-48
2023/04/17 02:52:04;;;;;;;7.60;3.10;;;;;;;4.07;100.00;101439.70;105086;1270;61049;-49
2023/04/17 02:54:34;;;;;;;11.40;3.80;;;;;;;4.00;100.00;101435.25;105067;1263;73523;-49
2023/04/17 02:57:03;;;;;;;7.90;3.40;;;;;;;3.96;100.00;101433.44;105062;1264;66094;-50
2023/04/17 02:59:31;;;;;;;7.00;2.20;;;;;;;3.93;100.00;101433.02;105185;1268;74339;-50
2023/04/17 03:02:02;;;;;;;7.40;3.20;;;;;;;3.89;100.00;101438.55;105564;1254;61354;-47
2023/04/17 03:04:33;;;;;;;5.00;3.00;;;;;;;3.88;100.00;101432.56;105723;1254;61601;-49
2023/04/17 03:07:01;;;;;;;10.30;2.80;;;;;;;3.87;100.00;101435.26;105685;1254;73427;-50
2023/04/17 03:09:30;;;;;;;8.30;3.00;;;;;;;3.90;100.00;101439.26;105710;1260;65986;-50
2023/04/17 03:11:58;;;;;;;4.40;2.90;;;;;;;3.88;100.00;101440.92;105726;1258;74283;-51
2023/04/17 03:14:27;;;;;;;5.70;2.90;;;;;;;3.84;100.00;101438.95;105659;1260;62443;-49
2023/04/17 03:16:56;;;;;;;6.20;2.60;;;;;;;3.80;100.00;101434.59;105661;1254;61707;-51
2023/04/17 03:19:24;;;;;;;4.50;2.50;;;;;;;3.80;100.00;101434.90;105664;1260;74679;-51
2023/04/17 03:21:53;;;;;;;4.00;2.70;;;;;;;3.77;100.00;101433.14;105674;1260;67092;-48
2023/04/17 03:24:21;;;;;;;11.10;2.70;;;;;;;3.74;100.00;101433.08;105652;1254;73944;-50
2023/04/17 03:26:50;;;;;;;4.90;2.90;;;;;;;3.72;100.00;101435.59;105694;1259;62517;-50
2023/04/17 03:29:19;;;;;;;4.80;2.40;;;;;;;3.73;100.00;101434.08;105665;1254;61579;-49
2023/04/17 03:31:48;;;;;;;4.60;2.60;;;;;;;3.73;100.00;101428.60;105709;1259;74206;-48
2023/04/17 03:34:20;;;;;;;5.70;3.00;;;;;;;3.75;100.00;101432.06;105670;1260;65975;-50
2023/04/17 03:36:49;;;;;;;4.60;2.60;;;;;;;3.77;100.00;101432.10;105658;1259;73961;-49
2023/04/17 03:39:18;;;;;;;13.60;3.40;;;;;;;3.80;100.00;101435.60;105674;1260;60899;-49
2023/04/17 03:41:47;;;;;;;4.90;2.50;;;;;;;3.84;100.00;101442.20;105617;1257;61647;-49
2023/04/17 03:44:17;;;;;;;7.70;2.40;;;;;;;3.87;100.00;101444.50;105641;1257;74439;-49
2023/04/17 03:46:46;;;;;;;5.10;2.40;;;;;;;3.95;100.00;101446.57;105631;1258;64937;-50
2023/04/17 03:49:15;;;;;;;5.20;2.90;;;;;;;4.00;100.00;101449.09;105639;1260;73905;-51
2023/04/17 03:51:44;;;;;;;6.30;2.80;;;;;;;4.08;100.00;101455.41;105602;1260;60753;-49
2023/04/17 03:54:17;;;;;;;5.00;2.50;;;;;;;4.11;100.00;101467.29;105704;1257;61597;-51
2023/04/17 03:56:46;;;;;;;5.60;3.00;;;;;;;4.17;100.00;101466.74;105621;1257;73374;-50
2023/04/17 03:59:15;;;;;;;4.80;2.60;;;;;;;4.26;100.00;101470.90;105631;1260;66111;-50
2023/04/17 04:01:45;;;;;;;9.50;2.60;;;;;;;4.36;100.00;101481.52;105629;1257;73845;-50
2023/04/17 04:04:20;;;;;;;10.20;2.80;;;;;;;4.48;100.00;101490.05;105655;1260;60778;-49
2023/04/17 04:06:49;;;;;;;7.60;3.00;;;;;;;4.59;100.00;101495.74;105676;1256;61689;-51
2023/04/17 04:09:20;;;;;;;16.50;3.40;;;;;;;4.74;100.00;101501.39;105639;1260;74823;-50
2023/04/17 04:11:49;;;;;;;6.30;2.40;;;;;;;4.91;100.00;101512.55;105669;1260;65953;-50
2023/04/17 04:14:18;;;;;;;11.00;3.50;;;;;;;5.06;100.00;101518.16;105674;1257;73952;-49
2023/04/17 04:16:48;;;;;;;12.40;3.20;;;;;;;5.19;100.00;101527.85;105653;1260;59851;-51
2023/04/17 04:19:17;;;;;;;10.80;2.70;;;;;;;5.35;100.00;101536.90;105664;1260;61558;-49
2023/04/17 04:21:45;;;;;;;7.20;2.50;;;;;;;5.46;100.00;101544.84;105630;1261;74263;-49
2023/04/17 04:24:14;;;;;;;8.80;2.50;;;;;;;5.56;100.00;101550.86;105634;1256;65379;-48
2023/04/17 04:26:46;;;;;;;15.70;2.80;;;;;;;5.69;100.00;101557.60;105601;1257;73301;-50
2023/04/17 04:29:14;;;;;;;7.00;3.00;;;;;;;5.75;100.00;101566.45;105599;1260;60894;-50
2023/04/17 04:31:52;;;;;;;4.70;2.50;;;;;;;5.85;100.00;101563.55;105623;1257;61803;-50
2023/04/17 04:34:28;;;;;;;7.50;3.00;;;;;;;5.97;100.00;101566.54;105665;1258;72293;-49
2023/04/17 04:36:57;;;;;;;4.00;1.80;;;;;;;6.04;100.00;101571.13;105625;1260;66278;-50
2023/04/17 04:39:52;;;;;;;4.70;2.10;;;;;;;6.19;100.00;101559.58;105641;1257;73987;-49
2023/04/17 04:42:22;;;;;;;7.30;2.00;;;;;;;6.30;95.18;101564.55;105655;1256;60767;-51
2023/04/17 04:44:59;;;;;;;5.90;2.30;;;;;;;6.32;94.12;101567.68;105616;1256;61765;-50
2023/04/17 04:47:29;;;;;;;5.40;2.20;;;;;;;6.32;92.92;101571.12;105695;1257;74478;-49
2023/04/17 04:49:57;;;;;;;6.20;2.50;;;;;;;6.31;90.97;101570.21;105671;1257;65986;-48
2023/04/17 05:44:08;;;;;;;5.30;2.70;;;;;;;7.32;64.77;101577.40;102929;1293;600833;-51
2023/04/17 05:46:37;;;;;;;11.10;2.90;;;;;;;7.35;63.53;101566.62;105247;1267;60929;-49
2023/04/17 05:49:06;;;;;;;5.10;2.90;;;;;;;7.36;62.28;101553.41;105108;1263;61650;-49
2023/04/17 05:51:34;;;;;;;5.40;2.90;;;;;;;7.32;61.43;101554.05;105099;1263;73727;-51
2023/04/17 05:54:03;;;;;;;6.20;2.80;;;;;;;7.30;60.85;101547.15;105082;1264;66608;-51
2023/04/17 05:56:31;;;;;;;9.90;2.80;;;;;;;7.30;61.00;101559.34;105117;1264;74163;-50
2023/04/17 05:59:00;;;;;;;9.90;2.80;;;;;;;7.32;60.94;101564.69;105065;1260;59596;-49
2023/04/17 06:01:29;;;;;;;7.70;2.50;;;;;;;7.39;61.29;101580.92;105260;1261;62145;-50
2023/04/17 06:03:57;;;;;;;4.70;2.60;;;;;;;7.52;60.45;101558.06;105263;1266;73505;-50
2023/04/17 06:06:29;;;;;;;6.30;2.70;;;;;;;7.48;60.21;101565.58;105268;1266;66240;-50
2023/04/17 06:08:57;;;;;;;5.20;2.30;;;;;;;7.51;60.30;101574.03;105248;1261;73976;-51
2023/04/17 06:11:26;;;;;;;11.30;2.60;;;;;;;7.58;59.01;101550.40;105254;1266;61671;-50
2023/04/17 06:13:55;;;;;;;5.20;2.50;;;;;;;7.62;59.06;101572.78;105230;1261;61554;-50
2023/04/17 06:16:23;;;;;;;8.50;2.80;;;;;;;7.72;58.30;101551.77;105257;1260;74603;-51
2023/04/17 06:18:51;;;;;;;6.20;2.20;;;;;;;7.81;57.90;101552.70;105306;1267;66096;-50
2023/04/17 06:21:20;;;;;;;5.20;2.30;;;;;;;7.88;56.44;101524.94;105228;1261;74684;-49
2023/04/17 06:23:49;;;;;;;3.30;2.00;;;;;;;7.93;55.06;101499.02;105273;1266;60996;-50
2023/04/17 06:26:17;;;;;;;6.70;2.90;;;;;;;8.02;55.90;101542.79;105311;1266;59859;-51
2023/04/17 06:28:47;;;;;;;5.80;2.70;;;;;;;8.16;56.00;101537.92;105582;1260;73604;-52
2023/04/17 06:31:15;;;;;;;7.50;2.60;;;;;;;8.28;54.74;101501.56;105678;1260;65116;-51
2023/04/17 06:33:46;;;;;;;8.50;2.90;;;;;;;8.32;54.40;101491.29;105685;1254;74466;-49
2023/04/17 06:36:15;;;;;;;8.80;3.10;;;;;;;8.40;53.43;101468.29;105701;1257;60952;-51
2023/04/17 06:38:47;;;;;;;10.10;2.90;;;;;;;8.44;54.02;101507.87;105763;1254;61846;-50
2023/04/17 06:41:16;;;;;;;6.20;2.40;;;;;;;8.55;54.87;101552.20;105661;1260;74531;-50
2023/04/17 06:43:45;;;;;;;8.60;2.60;;;;;;;8.77;54.58;101529.98;105635;1260;65789;-49
2023/04/17 06:46:14;;;;;;;4.70;2.60;;;;;;;8.97;52.73;101451.25;105654;1260;74335;-51
2023/04/17 06:48:43;;;;;;;5.90;2.30;;;;;;;8.99;51.70;101421.11;105593;1260;61764;-51
2023/04/17 06:51:11;;;;;;;5.00;2.60;;;;;;;8.94;51.07;101413.00;105617;1257;61557;-51
2023/04/17 06:53:39;;;;;;;8.00;2.90;;;;;;;8.91;50.82;101407.84;105751;1260;74247;-51
2023/04/17 06:56:08;;;;;;;6.50;2.70;;;;;;;8.92;51.48;101450.52;105668;1257;66167;-49
2023/04/17 06:58:42;;;;;;;9.30;2.70;;;;;;;8.97;50.63;101406.83;105628;1257;74188;-50
2023/04/17 07:01:12;;;;;;;6.90;2.60;;;;;;;8.92;50.03;101384.08;105661;1259;60885;-49
2023/04/17 07:03:40;;;;;;;5.20;2.60;;;;;;;8.92;51.26;101460.68;105631;1257;61602;-51
2023/04/17 07:06:09;;;;;;;8.00;2.30;;;;;;;9.06;52.06;101497.42;105637;1260;74222;-50
2023/04/17 07:08:38;;;;;;;5.50;2.80;;;;;;;9.30;50.50;101418.64;105623;1260;66152;-49
2023/04/17 07:11:06;;;;;;;6.10;2.20;;;;;;;9.38;49.87;101396.09;105607;1257;73927;-50
2023/04/17 07:13:35;;;;;;;5.00;2.70;;;;;;;9.43;49.64;101386.43;105679;1258;61927;-50
2023/04/17 07:16:05;;;;;;;9.80;3.20;;;;;;;9.47;49.68;101391.95;105643;1256;61597;-50
2023/04/17 07:18:34;;;;;;;6.50;2.50;;;;;;;9.60;49.85;101404.20;105598;1257;74687;-50
2023/04/17 07:21:02;;;;;;;5.60;2.30;;;;;;;9.74;49.74;101395.25;105635;1257;65756;-48
2023/04/17 07:23:31;;;;;;;4.30;2.40;;;;;;;9.91;49.48;101384.02;105977;1251;74179;-49
2023/04/17 07:25:59;;;;;;;8.60;2.40;;;;;;;10.02;48.49;101328.84;105968;1255;60682;-49
2023/04/17 07:28:28;;;;;;;9.20;2.70;;;;;;;10.12;48.76;101355.89;105994;1251;61812;-49
2023/04/17 07:30:57;;;;;;;5.10;2.30;;;;;;;10.31;46.94;101269.23;105982;1256;74604;-50
2023/04/17 07:33:25;;;;;;;6.50;1.80;;;;;;;10.44;47.23;101284.73;105992;1255;65831;-50
2023/04/17 07:35:54;;;;;;;5.00;2.10;;;;;;;10.57;46.58;101258.61;105994;1251;74092;-50
2023/04/17 07:38:23;;;;;;;8.60;2.30;;;;;;;10.61;46.36;101242.20;106025;1256;61511;-50
2023/04/17 07:40:52;;;;;;;4.70;2.00;;;;;;;10.68;45.14;101175.52;105965;1251;61639;-51
2023/04/17 07:43:22;;;;;;;5.20;1.80;;;;;;;10.71;45.54;101211.23;106059;1255;74275;-49
2023/04/17 07:45:51;;;;;;;2.30;1.90;;;;;;;10.91;46.15;101250.46;105974;1256;66121;-52
2023/04/17 07:48:21;;;;;;;7.60;1.90;;;;;;;11.09;44.62;101166.22;106034;1251;73951;-50
2023/04/17 07:50:50;;;;;;;6.20;1.70;;;;;;;11.10;44.54;101171.38;105991;1256;61596;-51
2023/04/17 07:53:18;;;;;;;3.20;1.80;;;;;;;11.13;43.77;101133.19;105969;1251;61819;-51
2023/04/17 07:55:47;;;;;;;5.10;2.00;;;;;;;11.17;43.36;101106.19;105980;1251;74246;-49
2023/04/17 07:58:16;;;;;;;4.50;1.80;;;;;;;11.14;44.52;101185.67;105981;1251;65412;-51
2023/04/17 08:00:45;;;;;;;3.40;1.90;;;;;;;11.30;44.72;101194.69;105978;1251;74045;-50
2023/04/17 08:03:13;;;;;;;6.80;1.70;;;;;;;11.47;44.41;101183.98;105941;1257;60676;-50
2023/04/17 08:05:42;;;;;;;3.00;2.00;;;;;;;11.60;44.51;101184.36;106031;1251;61773;-50
2023/04/17 08:08:11;;;;;;;2.80;1.90;;;;;;;11.62;43.56;101131.27;105900;1251;73388;-50
2023/04/17 08:10:40;;;;;;;5.90;2.80;;;;;;;11.65;44.40;101185.35;105886;1251;66566;-51
2023/04/17 08:13:08;;;;;;;10.70;2.20;;;;;;;11.80;44.06;101172.02;105982;1251;74187;-51
2023/04/17 08:15:39;;;;;;;4.20;1.50;;;;;;;11.96;43.04;101112.86;105981;1256;61898;-50
2023/04/17 08:18:08;;;;;;;4.40;1.70;;;;;;;12.00;42.69;101090.67;105987;1251;60591;-51
2023/04/17 08:20:37;;;;;;;3.90;1.40;;;;;;;11.99;42.11;101060.59;105979;1251;73804;-50
2023/04/17 08:23:07;;;;;;;4.10;1.50;;;;;;;11.97;41.64;101040.02;105923;1256;66241;-49
2023/04/17 08:25:36;;;;;;;3.90;1.80;;;;;;;11.92;41.23;101019.68;106012;1251;73966;-51
2023/04/17 08:28:04;;;;;;;5.90;1.60;;;;;;;11.92;41.17;101024.52;105979;1252;61237;-50
2023/04/17 08:30:33;;;;;;;5.70;1.30;;;;;;;11.97;41.38;101030.50;105986;1255;60904;-51
2023/04/17 08:33:02;;;;;;;3.30;1.40;;;;;;;12.07;40.70;100998.39;105973;1251;74334;-50
2023/04/17 08:35:31;;;;;;;2.10;1.50;;;;;;;12.20;40.86;101005.11;105992;1256;65608;-51
2023/04/17 08:38:00;;;;;;;4.20;2.00;;;;;;;12.37;40.27;100972.11;105974;1251;74143;-51
2023/04/17 08:40:28;;;;;;;2.40;1.30;;;;;;;12.50;39.83;100955.62;105960;1257;61644;-51
2023/04/17 08:42:57;;;;;;;2.20;1.50;;;;;;;12.49;40.11;100958.56;105956;1251;60428;-51
2023/04/17 08:45:25;;;;;;;5.70;1.40;;;;;;;12.55;40.76;101002.08;105896;1251;74836;-51
2023/04/17 08:47:54;;;;;;;1.40;1.20;;;;;;;12.82;40.06;100963.48;105796;1256;65868;-50
2023/04/17 08:50:23;;;;;;;4.40;1.50;;;;;;;13.03;39.57;100933.27;105991;1255;72869;-50
2023/04/17 08:52:51;;;;;;;4.00;2.00;;;;;;;13.04;39.98;100950.23;105972;1251;62032;-51
2023/04/17 08:55:22;;;;;;;5.00;1.50;;;;;;;13.14;39.22;100913.12;105981;1251;61640;-50
2023/04/17 08:58:02;;;;;;;2.00;1.70;;;;;;;13.18;38.14;100826.04;106029;1255;73150;-50
2023/04/17 09:00:49;;;;;;;3.00;1.80;;;;;;;13.11;38.27;100847.86;105959;1256;65978;-50
2023/04/17 09:03:18;;;;;;;4.10;1.80;;;;;;;13.21;39.50;100915.90;105930;1251;73903;-49
2023/04/17 09:05:47;;;;;;;3.30;1.60;;;;;;;13.38;38.25;100846.72;105984;1256;60636;-51
2023/04/17 09:08:19;;;;;;;2.60;1.30;;;;;;;13.45;37.90;100838.95;105990;1251;61472;-48
2023/04/17 09:10:52;;;;;;;8.50;1.60;;;;;;;13.41;37.15;100780.27;106029;1255;72765;-50
2023/04/17 09:13:23;;;;;;;3.30;2.20;;;;;;;13.29;37.51;100806.38;105932;1255;66258;-49
2023/04/17 09:16:06;;;;;;;2.40;2.00;;;;;;;13.21;38.30;100864.61;105934;1257;72818;-48
2023/04/17 09:18:35;;;;;;;8.70;3.30;;;;;;;13.13;37.54;100826.33;105954;1251;61241;-49
2023/04/17 09:21:05;;;;;;;2.80;1.50;;;;;;;13.08;37.59;100831.98;105963;1251;60721;-49
2023/04/17 09:23:54;;;;;;;43.50;23.50;;;;;;;13.01;37.09;100807.02;105990;1251;74118;-49
2023/04/17 09:26:26;;;;;;;4.90;2.00;;;;;;;13.05;37.76;100841.95;106020;1251;65325;-50
2023/04/17 09:29:02;;;;;;;2.10;1.70;;;;;;;13.23;36.93;100808.43;105958;1255;73841;-50
2023/04/17 09:31:33;;;;;;;3.40;1.90;;;;;;;13.32;37.30;100809.95;105961;1255;62052;-49
2023/04/17 09:34:03;;;;;;;4.60;2.10;;;;;;;13.47;37.96;100855.19;106010;1255;59639;-49
2023/04/17 09:36:38;;;;;;;4.30;3.00;;;;;;;13.77;36.62;100775.74;106005;1257;74479;-51
2023/04/17 09:39:38;;;;;;;2.00;1.80;;;;;;;13.99;36.17;100743.74;105996;1251;65174;-50
2023/04/17 09:42:09;;;;;;;6.00;1.70;;;;;;;14.23;36.44;100745.33;105963;1251;73980;-49
2023/04/17 09:44:41;;;;;;;6.40;1.60;;;;;;;14.39;34.87;100656.14;105963;1257;62312;-50
2023/04/17 09:47:10;;;;;;;2.00;1.30;;;;;;;14.34;34.50;100629.38;105975;1255;60777;-50
2023/04/17 09:49:41;;;;;;;2.70;1.50;;;;;;;14.46;35.03;100669.83;105856;1251;74193;-51
2023/04/17 09:52:10;;;;;;;13.50;2.60;;;;;;;14.38;34.22;100617.45;105968;1257;66092;-51
2023/04/17 09:54:39;;;;;;;2.10;1.20;;;;;;;14.25;35.48;100702.71;105965;1251;72039;-49
2023/04/17 09:57:09;;;;;;;12.70;1.60;;;;;;;14.25;35.68;100720.59;105829;1257;61650;-50
2023/04/17 09:59:39;;;;;;;6.20;2.80;;;;;;;14.30;35.75;100726.70;105994;1251;61506;-50
2023/04/17 10:02:08;;;;;;;7.00;1.50;;;;;;;14.38;35.33;100701.66;105964;1257;75336;-51
2023/04/17 10:04:41;;;;;;;2.80;1.20;;;;;;;14.57;35.46;100703.66;105949;1251;65056;-50
2023/04/17 10:07:09;;;;;;;1.30;1.10;;;;;;;14.72;35.06;100680.64;106039;1251;74106;-50
2023/04/17 10:09:40;;;;;;;3.10;1.30;;;;;;;14.77;34.99;100665.02;105979;1251;61540;-48
2023/04/17 10:12:13;;;;;;;6.10;1.10;;;;;;;14.89;35.43;100699.23;105937;1257;61137;-50
2023/04/17 10:14:47;;;;;;;3.00;1.20;;;;;;;15.09;35.93;100719.79;106027;1257;75311;-50
2023/04/17 10:17:23;;;;;;;2.50;1.50;;;;;;;15.30;34.66;100636.86;106034;1251;65997;-51
2023/04/17 10:19:52;;;;;;;9.00;1.90;;;;;;;15.26;33.78;100593.36;105964;1251;73466;-49
2023/04/17 10:22:21;;;;;;;5.30;2.60;;;;;;;15.05;34.62;100638.77;105787;1259;60874;-51
2023/04/17 10:25:09;;;;;;;8.10;1.50;;;;;;;15.02;35.91;100727.48;106010;1256;61854;-49
2023/04/17 10:27:39;;;;;;;4.90;1.40;;;;;;;15.26;34.29;100637.16;105947;1251;75357;-50
2023/04/17 10:30:12;;;;;;;4.60;1.30;;;;;;;15.38;33.77;100600.41;105979;1255;65907;-49
2023/04/17 10:33:06;;;;;;;5.40;1.30;;;;;;;15.56;33.29;100566.73;105957;1251;73172;-49
2023/04/17 10:35:37;;;;;;;4.80;1.00;;;;;;;15.70;32.46;100519.23;105973;1257;61794;-48
2023/04/17 10:38:06;;;;;;;3.60;1.50;;;;;;;15.72;33.76;100584.73;105984;1251;61637;-51
2023/04/17 10:40:35;;;;;;;6.60;1.70;;;;;;;15.81;32.61;100525.42;106006;1251;74100;-50
2023/04/17 10:43:13;;;;;;;3.60;1.70;;;;;;;15.67;32.17;100485.25;105992;1251;65865;-51
2023/04/17 10:46:09;;;;;;;7.70;1.50;;;;;;;15.66;32.35;100503.35;105946;1251;74235;-49
2023/04/17 10:48:45;;;;;;;2.50;1.10;;;;;;;15.51;32.08;100479.95;105964;1257;60965;-50
2023/04/17 10:51:20;;;;;;;3.70;1.20;;;;;;;15.39;31.28;100438.51;105941;1251;61003;-50
2023/04/17 10:53:50;;;;;;;2.70;1.10;;;;;;;15.20;31.59;100462.02;105961;1257;75362;-50
2023/04/17 10:56:24;;;;;;;8.40;1.80;;;;;;;15.23;32.04;100478.04;105982;1255;66115;-50
2023/04/17 10:59:05;;;;;;;8.50;1.40;;;;;;;15.35;32.28;100479.52;105932;1251;73929;-50
2023/04/17 11:01:47;;;;;;;2.20;1.40;;;;;;;15.50;31.89;100454.42;105989;1251;61006;-50
2023/04/17 11:04:29;;;;;;;4.50;1.30;;;;;;;15.66;31.82;100445.12;105986;1251;61532;-51
2023/04/17 11:06:59;;;;;;;2.40;1.40;;;;;;;15.84;30.71;100387.84;106005;1255;75129;-50
2023/04/17 11:09:28;;;;;;;2.70;1.10;;;;;;;15.94;29.99;100330.04;105948;1253;66284;-51
2023/04/17 11:11:58;;;;;;;3.60;1.30;;;;;;;15.89;29.86;100314.77;105950;1256;74149;-49
2023/04/17 11:14:26;;;;;;;6.80;1.50;;;;;;;15.81;30.88;100352.12;105918;1256;61609;-50
2023/04/17 11:16:55;;;;;;;2.70;1.30;;;;;;;15.90;31.08;100374.21;105981;1256;60876;-49
2023/04/17 11:19:24;;;;;;;4.60;1.30;;;;;;;16.00;31.23;100387.20;105986;1255;75061;-51
2023/04/17 11:21:56;;;;;;;4.30;1.30;;;;;;;16.00;30.00;100320.94;105973;1254;65933;-50
2023/04/17 11:24:25;;;;;;;4.10;1.30;;;;;;;16.00;30.17;100323.86;106000;1254;73918;-50
2023/04/17 11:26:55;;;;;;;4.30;1.30;;;;;;;16.06;30.23;100318.55;105939;1253;61053;-50
2023/04/17 11:29:24;;;;;;;5.30;1.40;;;;;;;16.20;30.39;100328.06;106001;1254;60370;-51
2023/04/17 11:31:55;;;;;;;18.70;1.80;;;;;;;16.34;31.08;100363.31;105901;1256;75364;-50
2023/04/17 11:34:24;;;;;;;2.90;1.30;;;;;;;16.48;30.54;100328.02;105938;1254;65376;-50
2023/04/17 11:36:57;;;;;;;3.90;1.80;;;;;;;16.61;29.58;100282.52;105964;1254;73659;-50
2023/04/17 11:39:29;;;;;;;6.10;1.60;;;;;;;16.60;29.46;100267.06;105959;1256;61561;-50
2023/04/17 11:41:58;;;;;;;3.80;1.40;;;;;;;16.65;30.14;100282.67;105980;1256;60533;-50
2023/04/17 11:44:27;;;;;;;2.50;1.40;;;;;;;16.79;29.46;100240.38;105938;1257;75337;-50
2023/04/17 11:46:57;;;;;;;5.10;1.60;;;;;;;16.87;29.52;100229.22;105940;1256;66097;-51
2023/04/17 11:49:36;;;;;;;4.60;1.00;;;;;;;16.94;29.81;100253.27;105974;1254;73888;-50
2023/04/17 11:52:04;;;;;;;4.80;1.60;;;;;;;16.79;29.12;100206.08;105946;1255;61647;-50
2023/04/17 11:54:37;;;;;;;1.80;1.30;;;;;;;16.62;29.14;100224.48;105956;1254;61725;-50
2023/04/17 11:57:11;;;;;;;6.60;1.40;;;;;;;16.62;29.27;100222.38;105915;1254;74649;-51
2023/04/17 11:59:44;;;;;;;5.70;2.00;;;;;;;16.54;28.72;100167.71;105956;1257;65393;-50
2023/04/17 12:02:13;;;;;;;8.40;1.70;;;;;;;16.44;29.23;100199.88;105889;1254;73146;-51
2023/04/17 12:04:42;;;;;;;18.30;1.70;;;;;;;16.51;30.26;100258.91;105780;1256;61634;-52
2023/04/17 12:07:20;;;;;;;4.80;1.40;;;;;;;16.66;30.97;100307.38;105962;1256;60672;-50
2023/04/17 12:09:56;;;;;;;5.10;1.40;;;;;;;16.92;30.03;100251.78;105943;1254;74374;-50
2023/04/17 12:12:25;;;;;;;6.90;1.50;;;;;;;16.99;29.11;100199.71;105984;1257;64041;-50
2023/04/17 12:14:53;;;;;;;4.80;1.10;;;;;;;16.91;28.80;100173.08;105920;1254;73899;-49
2023/04/17 12:17:22;;;;;;;2.10;1.30;;;;;;;16.92;29.62;100216.59;105938;1253;60915;-50
2023/04/17 12:19:52;;;;;;;6.50;2.60;;;;;;;17.09;29.00;100183.20;105954;1254;61571;-50
2023/04/17 12:22:20;;;;;;;6.30;1.70;;;;;;;17.21;29.23;100190.95;105958;1256;75288;-50
2023/04/17 12:24:49;;;;;;;7.00;1.30;;;;;;;17.26;28.93;100161.60;105981;1256;65880;-50
2023/04/17 12:27:18;;;;;;;3.00;0.90;;;;;;;17.23;28.98;100147.48;105947;1251;73198;-50
2023/04/17 12:29:47;;;;;;;5.90;2.30;;;;;;;17.32;28.86;100131.84;105948;1256;61571;-51
2023/04/17 12:32:15;;;;;;;2.60;1.40;;;;;;;17.29;29.21;100159.19;105951;1253;61884;-51
2023/04/17 12:34:44;;;;;;;6.20;1.60;;;;;;;17.25;28.81;100140.73;105937;1257;75342;-50
2023/04/17 12:37:13;;;;;;;8.30;2.10;;;;;;;17.16;28.63;100136.98;106019;1252;65285;-50
2023/04/17 12:39:42;;;;;;;2.90;1.60;;;;;;;17.06;28.81;100135.92;105955;1254;74155;-51
2023/04/17 12:42:11;;;;;;;3.20;1.40;;;;;;;17.04;29.11;100144.20;105960;1256;61591;-49
2023/04/17 12:44:40;;;;;;;5.00;2.20;;;;;;;17.08;29.57;100173.83;105956;1254;61634;-51
2023/04/17 12:47:09;;;;;;;3.80;1.90;;;;;;;17.26;29.77;100185.17;105929;1254;75051;-51
2023/04/17 12:49:38;;;;;;;4.80;1.60;;;;;;;17.38;28.20;100098.73;105944;1256;65052;-50
2023/04/17 12:52:06;;;;;;;3.00;1.80;;;;;;;17.41;28.84;100130.67;105982;1254;73881;-51
2023/04/17 12:54:39;;;;;;;3.80;2.30;;;;;;;17.39;29.18;100150.48;105930;1256;60984;-50
2023/04/17 12:57:08;;;;;;;6.30;2.80;;;;;;;17.46;29.02;100122.54;105946;1254;61586;-50